Portada
METAR-TAF:

METAR-TAF

Aeropuertos :

Aeropuerto Internacional de El Cairo

El Cairo, Egipto

latitud: 30-08N, longitud: 031-24E, altitud: 64 m

Observación

El informe se hizo hace 10 minutos, a las 06:30 UTC
Viento 3 kt del este
Temperatura 11°C
Humedad 87%
Presión 1022 hPa
Visibilidad: 6000 m

METAR: HECA 190630Z 10003KT 6000 NSC 11/09 Q1022 NOSIG

Hora: 08:40 (06:40 UTC)

Pronóstico

El informe se hizo hace 1 hora y 27 minutos, a las 05:13 UTC
Pronóstico válido del 19 a las 06 UTC al 20 a las 12 UTC
Viento 8 kt del este
Visibilidad: 6000 m
Temporalmente
del 19 a las 06 UTC al 19 a las 08 UTC
Viento 3 kt con dirección variable
Evolucionando progresivamente
del 19 a las 09 UTC al 19 a las 11 UTC
Viento 10 kt del norte-noreste
Visibilidad 10 km o más
Nubes dispersas a una altura de 2500 ft

TAF: HECA 190513Z 1906/2012 10008KT 6000 NSC TEMPO 1906/1908 VRB03KT 4000BR BECMG 1909/1911 02010KT 9999 SCT025

Observaciones y pronósticos meteorológicos de más de 4000 aeropuertos (mensajes METAR y TAF).

Los puntos amarillos y rojos representan las estaciones disponibles.

Ponga el ratón en el punto deseado para ver el nombre de la estación.

Haga clic para ver las observaciones y los pronósticos meteorológicos.

Para cambiar el mapa : haga clic en los botones verdes con una cruz de color negro para hacer un zoom, en el botón verde con un guión para alejar o en las flechas verdes para mapas adyacentes.


METAR-TAF: